sensor_id;sensor_type;location;lat;lon;timestamp;P1;durP1;ratioP1;P2;durP2;ratioP2
15354;SDS011;7777;52.254;9.618;2022-08-19T00:00:14;7.20;;;5.30;;
15354;SDS011;7777;52.254;9.618;2022-08-19T00:02:42;9.40;;;5.63;;
15354;SDS011;7777;52.254;9.618;2022-08-19T00:05:09;10.50;;;6.03;;
15354;SDS011;7777;52.254;9.618;2022-08-19T00:07:36;9.20;;;6.10;;
15354;SDS011;7777;52.254;9.618;2022-08-19T00:10:03;9.70;;;6.20;;
15354;SDS011;7777;52.254;9.618;2022-08-19T00:12:31;7.70;;;5.57;;
15354;SDS011;7777;52.254;9.618;2022-08-19T00:14:57;7.70;;;6.27;;
15354;SDS011;7777;52.254;9.618;2022-08-19T00:17:23;7.13;;;5.00;;
15354;SDS011;7777;52.254;9.618;2022-08-19T00:19:48;8.80;;;5.63;;
15354;SDS011;7777;52.254;9.618;2022-08-19T00:22:14;7.60;;;5.70;;
15354;SDS011;7777;52.254;9.618;2022-08-19T00:24:42;9.80;;;5.70;;
15354;SDS011;7777;52.254;9.618;2022-08-19T00:27:08;8.50;;;5.70;;
15354;SDS011;7777;52.254;9.618;2022-08-19T00:29:34;8.10;;;5.80;;
15354;SDS011;7777;52.254;9.618;2022-08-19T00:32:00;11.67;;;6.43;;
15354;SDS011;7777;52.254;9.618;2022-08-19T00:34:25;7.27;;;5.43;;
15354;SDS011;7777;52.254;9.618;2022-08-19T00:36:55;12.13;;;6.10;;
15354;SDS011;7777;52.254;9.618;2022-08-19T00:39:22;8.50;;;5.57;;
15354;SDS011;7777;52.254;9.618;2022-08-19T00:41:49;10.43;;;5.50;;
15354;SDS011;7777;52.254;9.618;2022-08-19T00:44:20;8.00;;;6.03;;
15354;SDS011;7777;52.254;9.618;2022-08-19T00:46:49;12.30;;;6.50;;
15354;SDS011;7777;52.254;9.618;2022-08-19T00:49:20;15.27;;;6.80;;
15354;SDS011;7777;52.254;9.618;2022-08-19T00:51:54;9.77;;;6.60;;
15354;SDS011;7777;52.254;9.618;2022-08-19T00:54:37;8.60;;;6.83;;
15354;SDS011;7777;52.254;9.618;2022-08-19T00:57:06;10.80;;;6.93;;
15354;SDS011;7777;52.254;9.618;2022-08-19T00:59:37;8.80;;;7.40;;
15354;SDS011;7777;52.254;9.618;2022-08-19T01:02:05;8.80;;;6.70;;
15354;SDS011;7777;52.254;9.618;2022-08-19T01:04:33;9.80;;;7.13;;
15354;SDS011;7777;52.254;9.618;2022-08-19T01:06:59;9.67;;;7.40;;
15354;SDS011;7777;52.254;9.618;2022-08-19T01:09:27;9.90;;;6.83;;
15354;SDS011;7777;52.254;9.618;2022-08-19T01:11:55;8.07;;;6.90;;
15354;SDS011;7777;52.254;9.618;2022-08-19T01:14:22;10.47;;;7.67;;
15354;SDS011;7777;52.254;9.618;2022-08-19T01:16:49;11.07;;;7.67;;
15354;SDS011;7777;52.254;9.618;2022-08-19T01:19:22;9.67;;;7.30;;
15354;SDS011;7777;52.254;9.618;2022-08-19T01:21:55;8.20;;;6.37;;
15354;SDS011;7777;52.254;9.618;2022-08-19T01:24:28;9.03;;;6.93;;
15354;SDS011;7777;52.254;9.618;2022-08-19T01:26:55;9.10;;;6.80;;
15354;SDS011;7777;52.254;9.618;2022-08-19T01:29:22;9.50;;;6.50;;
15354;SDS011;7777;52.254;9.618;2022-08-19T01:31:48;11.60;;;6.90;;
15354;SDS011;7777;52.254;9.618;2022-08-19T01:34:17;9.90;;;6.47;;
15354;SDS011;7777;52.254;9.618;2022-08-19T01:36:44;11.53;;;7.30;;
15354;SDS011;7777;52.254;9.618;2022-08-19T01:39:13;10.17;;;6.83;;
15354;SDS011;7777;52.254;9.618;2022-08-19T01:41:44;10.53;;;6.90;;
15354;SDS011;7777;52.254;9.618;2022-08-19T01:44:10;12.30;;;7.63;;
15354;SDS011;7777;52.254;9.618;2022-08-19T01:46:36;10.00;;;6.87;;
15354;SDS011;7777;52.254;9.618;2022-08-19T01:49:04;10.23;;;6.90;;
15354;SDS011;7777;52.254;9.618;2022-08-19T01:51:32;7.83;;;7.00;;
15354;SDS011;7777;52.254;9.618;2022-08-19T01:53:58;10.43;;;6.93;;
15354;SDS011;7777;52.254;9.618;2022-08-19T01:56:23;9.10;;;6.97;;
15354;SDS011;7777;52.254;9.618;2022-08-19T01:58:58;9.77;;;7.30;;
15354;SDS011;7777;52.254;9.618;2022-08-19T02:01:31;8.73;;;7.00;;
15354;SDS011;7777;52.254;9.618;2022-08-19T02:04:00;11.87;;;7.23;;
15354;SDS011;7777;52.254;9.618;2022-08-19T02:06:26;7.87;;;6.50;;
15354;SDS011;7777;52.254;9.618;2022-08-19T02:08:53;11.53;;;7.83;;
15354;SDS011;7777;52.254;9.618;2022-08-19T02:11:29;10.57;;;7.23;;
15354;SDS011;7777;52.254;9.618;2022-08-19T02:13:58;10.63;;;6.53;;
15354;SDS011;7777;52.254;9.618;2022-08-19T02:16:26;12.07;;;7.47;;
15354;SDS011;7777;52.254;9.618;2022-08-19T02:18:53;16.40;;;7.63;;
15354;SDS011;7777;52.254;9.618;2022-08-19T02:21:20;9.87;;;6.83;;
15354;SDS011;7777;52.254;9.618;2022-08-19T02:23:48;8.50;;;6.77;;
15354;SDS011;7777;52.254;9.618;2022-08-19T02:26:15;10.40;;;7.60;;
15354;SDS011;7777;52.254;9.618;2022-08-19T02:28:42;10.90;;;7.50;;
15354;SDS011;7777;52.254;9.618;2022-08-19T02:31:12;13.63;;;8.47;;
15354;SDS011;7777;52.254;9.618;2022-08-19T02:33:41;13.03;;;7.50;;
15354;SDS011;7777;52.254;9.618;2022-08-19T02:36:07;9.57;;;7.90;;
15354;SDS011;7777;52.254;9.618;2022-08-19T02:38:34;10.37;;;7.27;;
15354;SDS011;7777;52.254;9.618;2022-08-19T02:41:03;9.70;;;7.50;;
15354;SDS011;7777;52.254;9.618;2022-08-19T02:43:35;10.50;;;6.73;;
15354;SDS011;7777;52.254;9.618;2022-08-19T02:46:02;10.63;;;7.60;;
15354;SDS011;7777;52.254;9.618;2022-08-19T02:48:48;11.53;;;7.47;;
15354;SDS011;7777;52.254;9.618;2022-08-19T02:51:19;10.20;;;6.57;;
15354;SDS011;7777;52.254;9.618;2022-08-19T02:53:53;11.57;;;6.67;;
15354;SDS011;7777;52.254;9.618;2022-08-19T02:56:19;10.30;;;6.73;;
15354;SDS011;7777;52.254;9.618;2022-08-19T02:58:46;8.53;;;6.37;;
15354;SDS011;7777;52.254;9.618;2022-08-19T03:01:23;11.80;;;8.23;;
15354;SDS011;7777;52.254;9.618;2022-08-19T03:03:56;11.77;;;6.53;;
15354;SDS011;7777;52.254;9.618;2022-08-19T03:06:24;9.93;;;6.97;;
15354;SDS011;7777;52.254;9.618;2022-08-19T03:08:51;11.13;;;7.40;;
15354;SDS011;7777;52.254;9.618;2022-08-19T03:11:26;14.97;;;7.87;;
15354;SDS011;7777;52.254;9.618;2022-08-19T03:13:54;10.40;;;7.10;;
15354;SDS011;7777;52.254;9.618;2022-08-19T03:16:22;11.67;;;7.30;;
15354;SDS011;7777;52.254;9.618;2022-08-19T03:18:51;11.77;;;7.40;;
15354;SDS011;7777;52.254;9.618;2022-08-19T03:21:19;9.87;;;7.23;;
15354;SDS011;7777;52.254;9.618;2022-08-19T03:23:49;12.33;;;7.40;;
15354;SDS011;7777;52.254;9.618;2022-08-19T03:26:15;9.17;;;7.33;;
15354;SDS011;7777;52.254;9.618;2022-08-19T03:28:42;9.60;;;7.33;;
15354;SDS011;7777;52.254;9.618;2022-08-19T03:31:14;10.73;;;6.50;;
15354;SDS011;7777;52.254;9.618;2022-08-19T03:33:41;9.83;;;6.77;;
15354;SDS011;7777;52.254;9.618;2022-08-19T03:36:11;13.60;;;7.60;;
15354;SDS011;7777;52.254;9.618;2022-08-19T03:38:41;10.10;;;6.93;;
15354;SDS011;7777;52.254;9.618;2022-08-19T03:41:11;9.50;;;6.07;;
15354;SDS011;7777;52.254;9.618;2022-08-19T03:43:40;12.07;;;7.30;;
15354;SDS011;7777;52.254;9.618;2022-08-19T03:46:09;13.03;;;6.37;;
15354;SDS011;7777;52.254;9.618;2022-08-19T03:48:38;10.40;;;6.93;;
15354;SDS011;7777;52.254;9.618;2022-08-19T03:51:06;10.23;;;7.03;;
15354;SDS011;7777;52.254;9.618;2022-08-19T03:53:33;8.70;;;6.20;;
15354;SDS011;7777;52.254;9.618;2022-08-19T03:56:00;7.30;;;5.73;;
15354;SDS011;7777;52.254;9.618;2022-08-19T03:58:27;9.03;;;6.47;;
15354;SDS011;7777;52.254;9.618;2022-08-19T04:00:57;11.97;;;6.83;;
15354;SDS011;7777;52.254;9.618;2022-08-19T04:03:23;11.00;;;7.70;;
15354;SDS011;7777;52.254;9.618;2022-08-19T04:05:51;8.27;;;6.27;;
15354;SDS011;7777;52.254;9.618;2022-08-19T04:08:18;10.77;;;7.30;;
15354;SDS011;7777;52.254;9.618;2022-08-19T04:10:47;9.23;;;6.70;;
15354;SDS011;7777;52.254;9.618;2022-08-19T04:13:14;9.80;;;6.60;;
15354;SDS011;7777;52.254;9.618;2022-08-19T04:15:43;10.70;;;6.73;;
15354;SDS011;7777;52.254;9.618;2022-08-19T04:18:11;10.17;;;6.67;;
15354;SDS011;7777;52.254;9.618;2022-08-19T04:20:40;8.27;;;6.60;;
15354;SDS011;7777;52.254;9.618;2022-08-19T04:23:11;10.27;;;6.67;;
15354;SDS011;7777;52.254;9.618;2022-08-19T04:25:39;7.40;;;6.20;;
15354;SDS011;7777;52.254;9.618;2022-08-19T04:28:08;10.77;;;6.63;;
15354;SDS011;7777;52.254;9.618;2022-08-19T04:30:37;10.50;;;7.23;;
15354;SDS011;7777;52.254;9.618;2022-08-19T04:33:09;8.00;;;6.73;;
15354;SDS011;7777;52.254;9.618;2022-08-19T04:35:39;8.17;;;6.40;;
15354;SDS011;7777;52.254;9.618;2022-08-19T04:38:09;13.57;;;6.80;;
15354;SDS011;7777;52.254;9.618;2022-08-19T04:40:40;9.53;;;6.63;;
15354;SDS011;7777;52.254;9.618;2022-08-19T04:43:29;9.27;;;7.20;;
15354;SDS011;7777;52.254;9.618;2022-08-19T04:45:57;7.73;;;6.80;;
15354;SDS011;7777;52.254;9.618;2022-08-19T04:48:30;9.37;;;6.60;;
15354;SDS011;7777;52.254;9.618;2022-08-19T04:50:56;10.73;;;7.30;;
15354;SDS011;7777;52.254;9.618;2022-08-19T04:53:26;8.37;;;6.40;;
15354;SDS011;7777;52.254;9.618;2022-08-19T04:55:54;11.50;;;6.63;;
15354;SDS011;7777;52.254;9.618;2022-08-19T04:58:21;10.70;;;7.63;;
15354;SDS011;7777;52.254;9.618;2022-08-19T05:00:49;9.07;;;6.37;;
15354;SDS011;7777;52.254;9.618;2022-08-19T05:03:15;10.77;;;6.67;;
15354;SDS011;7777;52.254;9.618;2022-08-19T05:05:42;8.50;;;6.33;;
15354;SDS011;7777;52.254;9.618;2022-08-19T05:08:10;8.43;;;6.87;;
15354;SDS011;7777;52.254;9.618;2022-08-19T05:10:38;10.67;;;6.97;;
15354;SDS011;7777;52.254;9.618;2022-08-19T05:13:04;8.30;;;6.40;;
15354;SDS011;7777;52.254;9.618;2022-08-19T05:15:30;7.17;;;6.23;;
15354;SDS011;7777;52.254;9.618;2022-08-19T05:17:56;9.30;;;6.47;;
15354;SDS011;7777;52.254;9.618;2022-08-19T05:20:41;7.17;;;5.37;;
15354;SDS011;7777;52.254;9.618;2022-08-19T05:23:24;8.53;;;5.77;;
15354;SDS011;7777;52.254;9.618;2022-08-19T05:25:50;7.50;;;5.63;;
15354;SDS011;7777;52.254;9.618;2022-08-19T05:28:17;10.27;;;5.90;;
15354;SDS011;7777;52.254;9.618;2022-08-19T05:30:45;10.03;;;6.17;;
15354;SDS011;7777;52.254;9.618;2022-08-19T05:33:11;8.53;;;5.83;;
15354;SDS011;7777;52.254;9.618;2022-08-19T05:35:38;10.97;;;6.10;;
15354;SDS011;7777;52.254;9.618;2022-08-19T05:38:05;7.07;;;5.40;;
15354;SDS011;7777;52.254;9.618;2022-08-19T05:40:34;9.07;;;6.07;;
15354;SDS011;7777;52.254;9.618;2022-08-19T05:43:06;7.50;;;5.63;;
15354;SDS011;7777;52.254;9.618;2022-08-19T05:45:37;9.40;;;6.30;;
15354;SDS011;7777;52.254;9.618;2022-08-19T05:48:04;7.60;;;6.27;;
15354;SDS011;7777;52.254;9.618;2022-08-19T05:50:30;11.20;;;6.03;;
15354;SDS011;7777;52.254;9.618;2022-08-19T05:52:56;8.13;;;6.23;;
15354;SDS011;7777;52.254;9.618;2022-08-19T05:55:22;10.13;;;7.27;;
15354;SDS011;7777;52.254;9.618;2022-08-19T05:57:48;8.77;;;6.93;;
15354;SDS011;7777;52.254;9.618;2022-08-19T06:00:14;8.13;;;7.30;;
15354;SDS011;7777;52.254;9.618;2022-08-19T06:02:41;10.57;;;8.47;;
15354;SDS011;7777;52.254;9.618;2022-08-19T06:05:07;10.57;;;8.57;;
15354;SDS011;7777;52.254;9.618;2022-08-19T06:07:34;10.30;;;8.03;;
15354;SDS011;7777;52.254;9.618;2022-08-19T06:10:01;12.63;;;8.10;;
15354;SDS011;7777;52.254;9.618;2022-08-19T06:12:33;11.83;;;8.03;;
15354;SDS011;7777;52.254;9.618;2022-08-19T06:15:02;12.37;;;7.77;;
15354;SDS011;7777;52.254;9.618;2022-08-19T06:17:34;10.93;;;7.13;;
15354;SDS011;7777;52.254;9.618;2022-08-19T06:20:00;12.07;;;7.40;;
15354;SDS011;7777;52.254;9.618;2022-08-19T06:22:28;9.27;;;6.80;;
15354;SDS011;7777;52.254;9.618;2022-08-19T06:24:54;11.03;;;8.30;;
15354;SDS011;7777;52.254;9.618;2022-08-19T06:27:21;13.83;;;8.80;;
15354;SDS011;7777;52.254;9.618;2022-08-19T06:29:47;15.33;;;9.63;;
15354;SDS011;7777;52.254;9.618;2022-08-19T06:32:14;14.97;;;9.30;;
15354;SDS011;7777;52.254;9.618;2022-08-19T06:34:43;10.07;;;8.77;;
15354;SDS011;7777;52.254;9.618;2022-08-19T06:37:09;15.77;;;9.60;;
15354;SDS011;7777;52.254;9.618;2022-08-19T06:39:37;14.17;;;9.10;;
15354;SDS011;7777;52.254;9.618;2022-08-19T06:42:07;12.77;;;10.83;;
15354;SDS011;7777;52.254;9.618;2022-08-19T06:44:37;15.30;;;11.00;;
15354;SDS011;7777;52.254;9.618;2022-08-19T06:47:06;13.27;;;10.30;;
15354;SDS011;7777;52.254;9.618;2022-08-19T06:49:34;15.60;;;11.60;;
15354;SDS011;7777;52.254;9.618;2022-08-19T06:52:01;14.30;;;10.70;;
15354;SDS011;7777;52.254;9.618;2022-08-19T06:54:28;13.90;;;11.70;;
15354;SDS011;7777;52.254;9.618;2022-08-19T06:56:54;13.67;;;12.00;;
15354;SDS011;7777;52.254;9.618;2022-08-19T06:59:26;14.80;;;11.27;;
15354;SDS011;7777;52.254;9.618;2022-08-19T07:01:54;16.03;;;12.57;;
15354;SDS011;7777;52.254;9.618;2022-08-19T07:04:22;17.77;;;13.67;;
15354;SDS011;7777;52.254;9.618;2022-08-19T07:06:59;14.10;;;11.27;;
15354;SDS011;7777;52.254;9.618;2022-08-19T07:09:28;14.40;;;11.47;;
15354;SDS011;7777;52.254;9.618;2022-08-19T07:11:54;18.40;;;10.93;;
15354;SDS011;7777;52.254;9.618;2022-08-19T07:14:22;14.23;;;10.43;;
15354;SDS011;7777;52.254;9.618;2022-08-19T07:16:51;13.27;;;10.30;;
15354;SDS011;7777;52.254;9.618;2022-08-19T07:19:23;11.57;;;9.23;;
15354;SDS011;7777;52.254;9.618;2022-08-19T07:21:54;11.53;;;9.90;;
15354;SDS011;7777;52.254;9.618;2022-08-19T07:24:24;11.80;;;8.90;;
15354;SDS011;7777;52.254;9.618;2022-08-19T07:26:53;12.67;;;9.03;;
15354;SDS011;7777;52.254;9.618;2022-08-19T07:29:23;11.20;;;8.40;;
15354;SDS011;7777;52.254;9.618;2022-08-19T07:31:49;9.90;;;8.03;;
15354;SDS011;7777;52.254;9.618;2022-08-19T07:34:16;12.23;;;8.53;;
15354;SDS011;7777;52.254;9.618;2022-08-19T07:36:43;11.03;;;8.60;;
15354;SDS011;7777;52.254;9.618;2022-08-19T07:39:14;13.87;;;9.27;;
15354;SDS011;7777;52.254;9.618;2022-08-19T07:41:54;12.50;;;9.90;;
15354;SDS011;7777;52.254;9.618;2022-08-19T07:44:20;10.07;;;7.80;;
15354;SDS011;7777;52.254;9.618;2022-08-19T07:46:48;11.73;;;8.33;;
15354;SDS011;7777;52.254;9.618;2022-08-19T07:49:18;9.60;;;7.70;;
15354;SDS011;7777;52.254;9.618;2022-08-19T07:51:46;14.30;;;7.80;;
15354;SDS011;7777;52.254;9.618;2022-08-19T07:54:15;9.93;;;7.83;;
15354;SDS011;7777;52.254;9.618;2022-08-19T07:56:42;9.83;;;8.47;;
15354;SDS011;7777;52.254;9.618;2022-08-19T07:59:08;12.53;;;9.40;;
15354;SDS011;7777;52.254;9.618;2022-08-19T08:01:34;11.90;;;7.63;;
15354;SDS011;7777;52.254;9.618;2022-08-19T08:04:01;10.20;;;8.03;;
15354;SDS011;7777;52.254;9.618;2022-08-19T08:06:45;10.40;;;9.00;;
15354;SDS011;7777;52.254;9.618;2022-08-19T08:09:31;11.67;;;8.80;;
15354;SDS011;7777;52.254;9.618;2022-08-19T08:12:05;12.73;;;8.43;;
15354;SDS011;7777;52.254;9.618;2022-08-19T08:14:44;10.40;;;8.33;;
15354;SDS011;7777;52.254;9.618;2022-08-19T08:17:15;10.07;;;8.10;;
15354;SDS011;7777;52.254;9.618;2022-08-19T08:19:44;13.07;;;8.60;;
15354;SDS011;7777;52.254;9.618;2022-08-19T08:22:11;12.53;;;8.03;;
15354;SDS011;7777;52.254;9.618;2022-08-19T08:25:11;10.03;;;8.60;;
15354;SDS011;7777;52.254;9.618;2022-08-19T08:27:42;11.23;;;8.67;;
15354;SDS011;7777;52.254;9.618;2022-08-19T08:30:12;11.60;;;9.40;;
15354;SDS011;7777;52.254;9.618;2022-08-19T08:32:42;12.00;;;8.67;;
15354;SDS011;7777;52.254;9.618;2022-08-19T08:35:10;10.83;;;8.50;;
15354;SDS011;7777;52.254;9.618;2022-08-19T08:37:38;11.87;;;8.90;;
15354;SDS011;7777;52.254;9.618;2022-08-19T08:40:06;10.83;;;8.07;;
15354;SDS011;7777;52.254;9.618;2022-08-19T08:42:46;10.37;;;7.10;;
15354;SDS011;7777;52.254;9.618;2022-08-19T08:45:27;7.83;;;5.77;;
15354;SDS011;7777;52.254;9.618;2022-08-19T08:47:55;8.47;;;6.17;;
15354;SDS011;7777;52.254;9.618;2022-08-19T08:50:37;10.10;;;5.43;;
15354;SDS011;7777;52.254;9.618;2022-08-19T08:53:08;6.80;;;5.30;;
15354;SDS011;7777;52.254;9.618;2022-08-19T08:55:42;9.03;;;5.73;;
15354;SDS011;7777;52.254;9.618;2022-08-19T08:58:15;7.97;;;5.83;;
15354;SDS011;7777;52.254;9.618;2022-08-19T09:01:08;6.77;;;5.43;;
15354;SDS011;7777;52.254;9.618;2022-08-19T09:03:36;6.33;;;4.50;;
15354;SDS011;7777;52.254;9.618;2022-08-19T09:06:18;9.60;;;4.97;;
15354;SDS011;7777;52.254;9.618;2022-08-19T09:12:03;14.70;;;5.43;;
15354;SDS011;7777;52.254;9.618;2022-08-19T09:14:57;5.07;;;3.40;;
15354;SDS011;7777;52.254;9.618;2022-08-19T09:17:31;6.20;;;3.53;;
15354;SDS011;7777;52.254;9.618;2022-08-19T09:20:15;11.97;;;5.33;;
15354;SDS011;7777;52.254;9.618;2022-08-19T09:22:46;7.40;;;4.10;;
15354;SDS011;7777;52.254;9.618;2022-08-19T09:25:17;5.43;;;3.53;;
15354;SDS011;7777;52.254;9.618;2022-08-19T09:27:49;5.50;;;3.20;;
15354;SDS011;7777;52.254;9.618;2022-08-19T09:30:19;6.63;;;3.50;;
15354;SDS011;7777;52.254;9.618;2022-08-19T09:32:51;5.60;;;3.30;;
15354;SDS011;7777;52.254;9.618;2022-08-19T09:35:19;5.77;;;4.07;;
15354;SDS011;7777;52.254;9.618;2022-08-19T09:37:48;5.00;;;3.60;;
15354;SDS011;7777;52.254;9.618;2022-08-19T09:40:14;5.80;;;4.23;;
15354;SDS011;7777;52.254;9.618;2022-08-19T09:42:41;10.10;;;4.43;;
15354;SDS011;7777;52.254;9.618;2022-08-19T09:45:11;4.93;;;3.03;;
15354;SDS011;7777;52.254;9.618;2022-08-19T09:47:39;4.57;;;2.90;;
15354;SDS011;7777;52.254;9.618;2022-08-19T09:50:05;4.67;;;2.70;;
15354;SDS011;7777;52.254;9.618;2022-08-19T09:52:35;5.33;;;2.20;;
15354;SDS011;7777;52.254;9.618;2022-08-19T09:55:02;7.37;;;2.60;;
15354;SDS011;7777;52.254;9.618;2022-08-19T09:57:32;3.23;;;1.90;;
15354;SDS011;7777;52.254;9.618;2022-08-19T09:59:59;4.37;;;2.30;;
15354;SDS011;7777;52.254;9.618;2022-08-19T10:02:24;3.87;;;2.10;;
15354;SDS011;7777;52.254;9.618;2022-08-19T10:04:51;5.53;;;2.30;;
15354;SDS011;7777;52.254;9.618;2022-08-19T10:07:36;2.63;;;1.90;;
15354;SDS011;7777;52.254;9.618;2022-08-19T10:10:05;4.53;;;1.80;;
15354;SDS011;7777;52.254;9.618;2022-08-19T10:12:33;2.43;;;1.50;;
15354;SDS011;7777;52.254;9.618;2022-08-19T10:14:59;2.80;;;1.60;;
15354;SDS011;7777;52.254;9.618;2022-08-19T10:17:27;2.83;;;1.57;;
15354;SDS011;7777;52.254;9.618;2022-08-19T10:19:53;3.13;;;1.60;;
15354;SDS011;7777;52.254;9.618;2022-08-19T10:22:19;5.73;;;1.50;;
15354;SDS011;7777;52.254;9.618;2022-08-19T10:24:45;4.27;;;1.70;;
15354;SDS011;7777;52.254;9.618;2022-08-19T10:27:12;4.33;;;1.50;;
15354;SDS011;7777;52.254;9.618;2022-08-19T10:29:39;2.37;;;1.53;;
15354;SDS011;7777;52.254;9.618;2022-08-19T10:32:06;2.27;;;1.00;;
15354;SDS011;7777;52.254;9.618;2022-08-19T10:34:34;3.03;;;1.60;;
15354;SDS011;7777;52.254;9.618;2022-08-19T10:37:02;2.63;;;1.70;;
15354;SDS011;7777;52.254;9.618;2022-08-19T10:39:31;2.93;;;1.47;;
15354;SDS011;7777;52.254;9.618;2022-08-19T10:42:03;2.83;;;1.50;;
15354;SDS011;7777;52.254;9.618;2022-08-19T10:44:31;2.10;;;1.30;;
15354;SDS011;7777;52.254;9.618;2022-08-19T10:47:00;3.80;;;1.90;;
15354;SDS011;7777;52.254;9.618;2022-08-19T10:49:26;3.17;;;2.00;;
15354;SDS011;7777;52.254;9.618;2022-08-19T10:51:52;5.63;;;2.03;;
15354;SDS011;7777;52.254;9.618;2022-08-19T10:54:36;3.23;;;1.73;;
15354;SDS011;7777;52.254;9.618;2022-08-19T10:57:20;1.50;;;1.27;;
15354;SDS011;7777;52.254;9.618;2022-08-19T10:59:49;2.13;;;1.53;;
15354;SDS011;7777;52.254;9.618;2022-08-19T11:02:15;1.97;;;1.30;;
15354;SDS011;7777;52.254;9.618;2022-08-19T11:04:40;2.20;;;1.03;;
15354;SDS011;7777;52.254;9.618;2022-08-19T11:07:07;1.70;;;1.20;;
15354;SDS011;7777;52.254;9.618;2022-08-19T11:09:37;2.20;;;1.20;;
15354;SDS011;7777;52.254;9.618;2022-08-19T11:12:05;2.70;;;1.00;;
15354;SDS011;7777;52.254;9.618;2022-08-19T11:14:33;1.50;;;1.00;;
15354;SDS011;7777;52.254;9.618;2022-08-19T11:16:59;2.40;;;1.10;;
15354;SDS011;7777;52.254;9.618;2022-08-19T11:19:26;1.47;;;0.80;;
15354;SDS011;7777;52.254;9.618;2022-08-19T11:21:52;2.30;;;1.40;;
15354;SDS011;7777;52.254;9.618;2022-08-19T11:24:20;3.63;;;1.53;;
15354;SDS011;7777;52.254;9.618;2022-08-19T11:26:49;2.70;;;1.40;;
15354;SDS011;7777;52.254;9.618;2022-08-19T11:29:21;2.73;;;1.50;;
15354;SDS011;7777;52.254;9.618;2022-08-19T11:31:50;2.30;;;1.37;;
15354;SDS011;7777;52.254;9.618;2022-08-19T11:34:21;2.70;;;1.70;;
15354;SDS011;7777;52.254;9.618;2022-08-19T11:36:50;2.47;;;1.50;;
15354;SDS011;7777;52.254;9.618;2022-08-19T11:39:18;4.10;;;1.53;;
15354;SDS011;7777;52.254;9.618;2022-08-19T11:41:46;5.60;;;1.60;;
15354;SDS011;7777;52.254;9.618;2022-08-19T11:44:12;2.40;;;1.57;;
15354;SDS011;7777;52.254;9.618;2022-08-19T11:46:39;1.80;;;1.20;;
15354;SDS011;7777;52.254;9.618;2022-08-19T11:49:10;2.97;;;1.53;;
15354;SDS011;7777;52.254;9.618;2022-08-19T11:51:36;2.60;;;1.70;;
15354;SDS011;7777;52.254;9.618;2022-08-19T11:54:04;3.57;;;1.20;;
15354;SDS011;7777;52.254;9.618;2022-08-19T11:56:30;6.30;;;1.47;;
15354;SDS011;7777;52.254;9.618;2022-08-19T11:58:57;5.67;;;1.60;;
15354;SDS011;7777;52.254;9.618;2022-08-19T12:01:24;3.47;;;1.50;;
15354;SDS011;7777;52.254;9.618;2022-08-19T12:03:51;3.60;;;1.60;;
15354;SDS011;7777;52.254;9.618;2022-08-19T12:06:23;3.87;;;1.33;;
15354;SDS011;7777;52.254;9.618;2022-08-19T12:08:53;5.13;;;1.20;;
15354;SDS011;7777;52.254;9.618;2022-08-19T12:11:21;1.97;;;1.27;;
15354;SDS011;7777;52.254;9.618;2022-08-19T12:13:47;1.90;;;1.07;;
15354;SDS011;7777;52.254;9.618;2022-08-19T12:16:15;2.20;;;1.00;;
15354;SDS011;7777;52.254;9.618;2022-08-19T12:18:47;2.03;;;1.37;;
15354;SDS011;7777;52.254;9.618;2022-08-19T12:21:16;3.20;;;1.10;;
15354;SDS011;7777;52.254;9.618;2022-08-19T12:23:46;1.70;;;1.00;;
15354;SDS011;7777;52.254;9.618;2022-08-19T12:26:13;1.80;;;1.20;;
15354;SDS011;7777;52.254;9.618;2022-08-19T12:28:39;3.73;;;1.03;;
15354;SDS011;7777;52.254;9.618;2022-08-19T12:31:06;3.50;;;1.70;;
15354;SDS011;7777;52.254;9.618;2022-08-19T12:33:33;4.63;;;1.60;;
15354;SDS011;7777;52.254;9.618;2022-08-19T12:36:00;2.23;;;1.20;;
15354;SDS011;7777;52.254;9.618;2022-08-19T12:38:28;5.90;;;1.40;;
15354;SDS011;7777;52.254;9.618;2022-08-19T12:40:55;2.23;;;1.17;;
15354;SDS011;7777;52.254;9.618;2022-08-19T12:43:21;1.93;;;1.30;;
15354;SDS011;7777;52.254;9.618;2022-08-19T12:45:46;4.93;;;1.58;;
15354;SDS011;7777;52.254;9.618;2022-08-19T12:48:12;2.33;;;1.40;;
15354;SDS011;7777;52.254;9.618;2022-08-19T12:50:39;4.57;;;1.80;;
15354;SDS011;7777;52.254;9.618;2022-08-19T12:53:06;2.45;;;1.10;;
15354;SDS011;7777;52.254;9.618;2022-08-19T12:55:32;1.50;;;1.02;;
15354;SDS011;7777;52.254;9.618;2022-08-19T12:57:58;3.50;;;1.23;;
15354;SDS011;7777;52.254;9.618;2022-08-19T13:00:26;2.40;;;1.50;;
15354;SDS011;7777;52.254;9.618;2022-08-19T13:02:53;2.95;;;1.42;;
15354;SDS011;7777;52.254;9.618;2022-08-19T13:05:20;4.13;;;1.20;;
15354;SDS011;7777;52.254;9.618;2022-08-19T13:07:49;1.65;;;0.95;;
15354;SDS011;7777;52.254;9.618;2022-08-19T13:10:20;2.20;;;1.17;;
15354;SDS011;7777;52.254;9.618;2022-08-19T13:12:47;5.28;;;1.30;;
15354;SDS011;7777;52.254;9.618;2022-08-19T13:15:15;2.58;;;0.80;;
15354;SDS011;7777;52.254;9.618;2022-08-19T13:17:45;3.15;;;1.10;;
15354;SDS011;7777;52.254;9.618;2022-08-19T13:20:17;1.45;;;0.88;;
15354;SDS011;7777;52.254;9.618;2022-08-19T13:22:45;4.03;;;1.08;;
15354;SDS011;7777;52.254;9.618;2022-08-19T13:25:13;2.58;;;0.90;;
15354;SDS011;7777;52.254;9.618;2022-08-19T13:27:42;5.22;;;1.00;;
15354;SDS011;7777;52.254;9.618;2022-08-19T13:30:10;5.68;;;0.95;;
15354;SDS011;7777;52.254;9.618;2022-08-19T13:32:58;11.57;;;1.00;;
15354;SDS011;7777;52.254;9.618;2022-08-19T13:35:36;2.13;;;1.10;;
15354;SDS011;7777;52.254;9.618;2022-08-19T13:38:15;3.35;;;0.95;;
15354;SDS011;7777;52.254;9.618;2022-08-19T13:40:45;3.13;;;1.00;;
15354;SDS011;7777;52.254;9.618;2022-08-19T13:43:12;1.90;;;0.70;;
15354;SDS011;7777;52.254;9.618;2022-08-19T13:45:38;1.55;;;0.82;;
15354;SDS011;7777;52.254;9.618;2022-08-19T13:48:05;1.60;;;1.10;;
15354;SDS011;7777;52.254;9.618;2022-08-19T13:50:34;1.65;;;0.82;;
15354;SDS011;7777;52.254;9.618;2022-08-19T13:53:11;1.42;;;0.80;;
15354;SDS011;7777;52.254;9.618;2022-08-19T13:55:38;2.05;;;0.80;;
15354;SDS011;7777;52.254;9.618;2022-08-19T13:58:05;1.30;;;0.60;;
15354;SDS011;7777;52.254;9.618;2022-08-19T14:00:33;1.50;;;0.80;;
15354;SDS011;7777;52.254;9.618;2022-08-19T14:03:03;5.03;;;0.80;;
15354;SDS011;7777;52.254;9.618;2022-08-19T14:05:29;1.15;;;0.77;;
15354;SDS011;7777;52.254;9.618;2022-08-19T14:07:56;3.25;;;0.90;;
15354;SDS011;7777;52.254;9.618;2022-08-19T14:10:23;1.30;;;0.80;;
15354;SDS011;7777;52.254;9.618;2022-08-19T14:12:56;1.10;;;0.65;;
15354;SDS011;7777;52.254;9.618;2022-08-19T14:15:26;3.03;;;0.88;;
15354;SDS011;7777;52.254;9.618;2022-08-19T14:17:53;1.77;;;0.80;;
15354;SDS011;7777;52.254;9.618;2022-08-19T14:20:19;2.50;;;0.75;;
15354;SDS011;7777;52.254;9.618;2022-08-19T14:22:46;0.82;;;0.80;;
15354;SDS011;7777;52.254;9.618;2022-08-19T14:25:14;1.70;;;0.93;;
15354;SDS011;7777;52.254;9.618;2022-08-19T14:27:44;2.88;;;0.93;;
15354;SDS011;7777;52.254;9.618;2022-08-19T14:30:12;1.65;;;1.05;;
15354;SDS011;7777;52.254;9.618;2022-08-19T14:32:41;2.10;;;1.05;;
15354;SDS011;7777;52.254;9.618;2022-08-19T14:35:08;2.70;;;0.93;;
15354;SDS011;7777;52.254;9.618;2022-08-19T14:37:37;2.20;;;1.15;;
15354;SDS011;7777;52.254;9.618;2022-08-19T14:40:03;3.33;;;1.00;;
15354;SDS011;7777;52.254;9.618;2022-08-19T14:42:29;1.75;;;0.77;;
15354;SDS011;7777;52.254;9.618;2022-08-19T14:44:58;4.82;;;0.80;;
15354;SDS011;7777;52.254;9.618;2022-08-19T14:47:25;2.05;;;0.80;;
15354;SDS011;7777;52.254;9.618;2022-08-19T14:49:51;1.75;;;0.80;;
15354;SDS011;7777;52.254;9.618;2022-08-19T14:52:18;1.45;;;0.77;;
15354;SDS011;7777;52.254;9.618;2022-08-19T14:54:44;1.65;;;1.00;;
15354;SDS011;7777;52.254;9.618;2022-08-19T14:57:13;1.17;;;0.80;;
15354;SDS011;7777;52.254;9.618;2022-08-19T14:59:40;3.70;;;1.13;;
15354;SDS011;7777;52.254;9.618;2022-08-19T15:02:07;1.15;;;1.00;;
15354;SDS011;7777;52.254;9.618;2022-08-19T15:04:33;2.50;;;0.82;;
15354;SDS011;7777;52.254;9.618;2022-08-19T15:06:59;1.73;;;0.80;;
15354;SDS011;7777;52.254;9.618;2022-08-19T15:09:25;2.22;;;0.95;;